This is the latest recevied weather packets stored in our database for station/object DL9MSR. If no packets are shown the sender has not sent any weather packets the latest 10 day(s).
| Time | Temp. | Humidity | Pressure | Rain* | Wind** | Luminosity | Snow |
|---|---|---|---|---|---|---|---|
| 1777715720 | 24.44° C | 41% | 1018.8 hPa | 0 mm | - | - | - |
| 1777714617 | 23.89° C | 43% | 1018.9 hPa | 0 mm | - | - | - |
| 1777713919 | 23.89° C | 44% | 1018.9 hPa | 0 mm | - | - | - |
| 1777711520 | - | - | - | 0 mm | - | - | - |
| 1777710320 | - | - | - | 0 mm | - | - | - |
| 1777707015 | 19.44° C | 55% | 1019.8 hPa | 0 mm | - | - | - |
| 1777706140 | - | - | - | 0 mm | - | - | - |
| 1777705219 | - | - | - | 0 mm | - | - | - |
| 1777703719 | 16.67° C | 62% | 1020.1 hPa | 0 mm | - | - | - |
| 1777702539 | 15.56° C | 68% | 1020.3 hPa | 0 mm | - | - | - |
| 1777699519 | 10° C | 88% | 1020.6 hPa | 0 mm | - | - | - |
| 1777695920 | 7.22° C | 88% | 1020.5 hPa | 0 mm | - | - | - |
| 1777694720 | 7.22° C | 88% | 1020.6 hPa | 0 mm | - | - | - |
| 1777692920 | 7.22° C | 87% | 1020.8 hPa | 0 mm | - | - | - |
| 1777691741 | 7.78° C | 86% | 1020.9 hPa | 0 mm | - | - | - |
| 1777686940 | 8.33° C | 85% | 1021.7 hPa | 0 mm | - | - | - |
| 1777685720 | 8.33° C | 85% | 1021.9 hPa | 0 mm | - | - | - |
| 1777685120 | 8.89° C | 84% | 1022.2 hPa | 0 mm | - | - | - |
| 1777668326 | 15.56° C | 65% | 1023.5 hPa | 0 mm | - | - | - |
| 1777667120 | 16.11° C | 64% | 1023.6 hPa | 0 mm | - | - | - |
| 1777659919 | 20.56° C | 48% | 1024 hPa | 0 mm | - | - | - |
| 1777656920 | 21.67° C | 43% | 1023.8 hPa | 0 mm | - | - | - |
| 1777651518 | 23.33° C | 38% | 1024.7 hPa | 0 mm | - | - | - |
| 1777644620 | 23.33° C | 37% | 1026.1 hPa | 0 mm | - | - | - |
| 1777642820 | 22.78° C | 38% | 1026.5 hPa | 0 mm | - | - | - |
* Rain latest hour (hover to see other rain measurements)
** Current wind speed in m/s (hover to see current wind gust speed)